Etusivu
METAR-TAF:

METAR-TAF

Lentoasemat :

Sandane, Norja

Leveyspiiri: 61-50N, Pituuspiiri: 006-07E, korkeus merenpinnasta: 6 m

Tämänhetkinen sää

Tämä raportti tehtiin 16 minuuttia sitten, kello 04.50 UTC
Tuuli 2 kn eri suunnista
Lämpötila 8°C
Kosteus 81%
Ilmanpaine 1015 hPa
Näkyvyys 10 km tai enemmän
ei pilviä alle 1500 m:ssä eikä cumulonimbus-pilviä

METAR: ENSD 230450Z VRB02KT CAVOK 08/05 Q1015 RMK WIND 1138FT 07004KT

Aika: 07:06 (05:06 UTC)


TAF: puuttuu

Säähavainnot ja -ennusteet yli 4000 lentoasemalta (METAR- ja TAF-raportit).

Käytössä olevat sääasemat on merkitty karttaan keltaisilla ja punaisilla pisteillä.

Aseta hiiri pisteen päälle nähdäksesi sääaseman nimen.

Klikkaa sitten nähdäksesi säähavainnot ja -ennusteet.

Kartan vaihtaminen: klikkaa mustalla rastilla varustettuja vihreitä pisteitä, niin voit zoomata sisään; viivalla varustettua vihreää pistettä, niin voit zoomata ulos tai vihreitä nuolia, niin pääset viereisille kartoille.


METAR-TAF: